sensor_id;sensor_type;location;lat;lon;timestamp;pressure;altitude;pressure_sealevel;temperature;humidity
33506;BME280;19843;51.040;13.782;2022-12-18T00:01:58;101949.50;;;-6.61;81.72
33506;BME280;19843;51.040;13.782;2022-12-18T00:04:26;101951.03;;;-6.69;81.36
33506;BME280;19843;51.040;13.782;2022-12-18T00:06:54;101948.38;;;-7.01;82.70
33506;BME280;19843;51.040;13.782;2022-12-18T00:09:21;101947.78;;;-6.92;83.44
33506;BME280;19843;51.040;13.782;2022-12-18T00:11:50;101950.66;;;-6.81;82.91
33506;BME280;19843;51.040;13.782;2022-12-18T00:14:17;101953.13;;;-7.16;82.63
33506;BME280;19843;51.040;13.782;2022-12-18T00:16:46;101960.28;;;-7.10;83.29
33506;BME280;19843;51.040;13.782;2022-12-18T00:19:14;101972.97;;;-7.21;82.95
33506;BME280;19843;51.040;13.782;2022-12-18T00:21:41;101979.16;;;-7.45;84.32
33506;BME280;19843;51.040;13.782;2022-12-18T00:24:10;101977.50;;;-7.43;84.48
33506;BME280;19843;51.040;13.782;2022-12-18T00:26:38;101982.38;;;-7.53;85.39
33506;BME280;19843;51.040;13.782;2022-12-18T00:29:06;101980.94;;;-7.44;85.17
33506;BME280;19843;51.040;13.782;2022-12-18T00:31:34;101983.00;;;-7.33;85.70
33506;BME280;19843;51.040;13.782;2022-12-18T00:34:03;101979.84;;;-7.23;84.02
33506;BME280;19843;51.040;13.782;2022-12-18T00:36:31;101984.34;;;-7.18;83.34
33506;BME280;19843;51.040;13.782;2022-12-18T00:38:59;101988.75;;;-7.17;83.07
33506;BME280;19843;51.040;13.782;2022-12-18T00:41:27;101982.31;;;-7.28;82.91
33506;BME280;19843;51.040;13.782;2022-12-18T00:44:13;101996.78;;;-7.09;83.15
33506;BME280;19843;51.040;13.782;2022-12-18T00:46:41;102004.53;;;-7.12;82.08
33506;BME280;19843;51.040;13.782;2022-12-18T00:49:10;102004.16;;;-6.96;82.07
33506;BME280;19843;51.040;13.782;2022-12-18T00:51:37;102005.59;;;-7.05;81.39
33506;BME280;19843;51.040;13.782;2022-12-18T00:54:05;102014.09;;;-7.12;81.57
33506;BME280;19843;51.040;13.782;2022-12-18T00:56:32;102006.56;;;-7.30;82.04
33506;BME280;19843;51.040;13.782;2022-12-18T00:58:59;102004.06;;;-7.27;82.44
33506;BME280;19843;51.040;13.782;2022-12-18T01:01:27;102001.38;;;-7.30;83.07
33506;BME280;19843;51.040;13.782;2022-12-18T01:03:54;102000.06;;;-7.16;82.82
33506;BME280;19843;51.040;13.782;2022-12-18T01:06:24;101990.94;;;-7.02;82.21
33506;BME280;19843;51.040;13.782;2022-12-18T01:08:51;101996.63;;;-7.15;81.39
33506;BME280;19843;51.040;13.782;2022-12-18T01:11:19;102007.78;;;-7.19;81.20
33506;BME280;19843;51.040;13.782;2022-12-18T01:13:47;102012.75;;;-7.54;81.91
33506;BME280;19843;51.040;13.782;2022-12-18T01:16:15;102005.84;;;-7.53;82.58
33506;BME280;19843;51.040;13.782;2022-12-18T01:18:43;102015.66;;;-7.45;82.66
33506;BME280;19843;51.040;13.782;2022-12-18T01:21:12;102015.28;;;-7.30;82.77
33506;BME280;19843;51.040;13.782;2022-12-18T01:23:41;102018.81;;;-7.55;82.57
33506;BME280;19843;51.040;13.782;2022-12-18T01:26:13;102017.81;;;-7.59;82.63
33506;BME280;19843;51.040;13.782;2022-12-18T01:28:41;102028.84;;;-7.67;82.40
33506;BME280;19843;51.040;13.782;2022-12-18T01:31:13;102023.81;;;-7.61;83.28
33506;BME280;19843;51.040;13.782;2022-12-18T01:33:41;102029.22;;;-7.55;83.23
33506;BME280;19843;51.040;13.782;2022-12-18T01:36:14;102030.09;;;-7.56;82.90
33506;BME280;19843;51.040;13.782;2022-12-18T01:38:43;102029.53;;;-7.46;82.41
33506;BME280;19843;51.040;13.782;2022-12-18T01:41:10;102033.66;;;-7.52;82.61
33506;BME280;19843;51.040;13.782;2022-12-18T01:43:44;102030.22;;;-7.51;82.52
33506;BME280;19843;51.040;13.782;2022-12-18T01:46:12;102030.09;;;-7.54;82.60
33506;BME280;19843;51.040;13.782;2022-12-18T01:48:40;102023.94;;;-7.58;82.45
33506;BME280;19843;51.040;13.782;2022-12-18T01:51:08;102020.63;;;-7.52;82.00
33506;BME280;19843;51.040;13.782;2022-12-18T01:53:37;102024.97;;;-7.53;81.92
33506;BME280;19843;51.040;13.782;2022-12-18T01:56:07;102026.84;;;-7.74;82.33
33506;BME280;19843;51.040;13.782;2022-12-18T01:58:37;102023.19;;;-7.80;82.49
33506;BME280;19843;51.040;13.782;2022-12-18T02:01:07;102027.31;;;-7.61;81.94
33506;BME280;19843;51.040;13.782;2022-12-18T02:03:35;102028.84;;;-7.67;82.37
33506;BME280;19843;51.040;13.782;2022-12-18T02:06:06;102032.81;;;-7.77;82.13
33506;BME280;19843;51.040;13.782;2022-12-18T02:08:38;102025.16;;;-7.72;82.70
33506;BME280;19843;51.040;13.782;2022-12-18T02:11:10;102026.66;;;-7.81;82.70
33506;BME280;19843;51.040;13.782;2022-12-18T02:13:41;102043.25;;;-7.77;82.42
33506;BME280;19843;51.040;13.782;2022-12-18T02:16:10;102038.09;;;-7.75;82.37
33506;BME280;19843;51.040;13.782;2022-12-18T02:18:41;102030.34;;;-7.74;82.22
33506;BME280;19843;51.040;13.782;2022-12-18T02:21:12;102033.09;;;-7.95;81.92
33506;BME280;19843;51.040;13.782;2022-12-18T02:23:47;102033.84;;;-7.99;82.52
33506;BME280;19843;51.040;13.782;2022-12-18T02:26:19;102027.13;;;-7.92;82.91
33506;BME280;19843;51.040;13.782;2022-12-18T02:28:49;102023.72;;;-7.90;82.42
33506;BME280;19843;51.040;13.782;2022-12-18T02:31:19;102026.75;;;-7.78;81.94
33506;BME280;19843;51.040;13.782;2022-12-18T02:33:48;102039.50;;;-7.60;82.27
33506;BME280;19843;51.040;13.782;2022-12-18T02:36:16;102043.28;;;-7.50;81.39
33506;BME280;19843;51.040;13.782;2022-12-18T02:38:44;102044.78;;;-7.58;81.84
33506;BME280;19843;51.040;13.782;2022-12-18T02:41:13;102034.53;;;-7.52;81.81
33506;BME280;19843;51.040;13.782;2022-12-18T02:43:46;102036.63;;;-7.42;81.11
33506;BME280;19843;51.040;13.782;2022-12-18T02:46:25;102037.00;;;-7.29;80.96
33506;BME280;19843;51.040;13.782;2022-12-18T02:48:53;102043.09;;;-7.29;80.04
33506;BME280;19843;51.040;13.782;2022-12-18T02:51:24;102042.19;;;-7.31;79.65
33506;BME280;19843;51.040;13.782;2022-12-18T02:53:57;102042.22;;;-7.29;79.76
33506;BME280;19843;51.040;13.782;2022-12-18T02:56:28;102034.31;;;-7.32;79.69
33506;BME280;19843;51.040;13.782;2022-12-18T02:59:03;102035.28;;;-7.29;79.56
33506;BME280;19843;51.040;13.782;2022-12-18T03:01:33;102040.53;;;-7.27;79.53
33506;BME280;19843;51.040;13.782;2022-12-18T03:04:01;102041.81;;;-7.42;79.40
33506;BME280;19843;51.040;13.782;2022-12-18T03:06:32;102042.72;;;-7.41;79.80
33506;BME280;19843;51.040;13.782;2022-12-18T03:09:02;102037.03;;;-7.55;80.40
33506;BME280;19843;51.040;13.782;2022-12-18T03:11:33;102044.66;;;-7.61;81.03
33506;BME280;19843;51.040;13.782;2022-12-18T03:14:20;102036.31;;;-7.51;81.04
33506;BME280;19843;51.040;13.782;2022-12-18T03:16:48;102038.06;;;-7.50;80.88
33506;BME280;19843;51.040;13.782;2022-12-18T03:19:18;102044.50;;;-7.40;80.76
33506;BME280;19843;51.040;13.782;2022-12-18T03:21:49;102046.91;;;-7.45;81.48
33506;BME280;19843;51.040;13.782;2022-12-18T03:24:18;102047.97;;;-7.40;81.39
33506;BME280;19843;51.040;13.782;2022-12-18T03:26:47;102047.91;;;-7.41;80.63
33506;BME280;19843;51.040;13.782;2022-12-18T03:29:18;102054.22;;;-7.35;80.70
33506;BME280;19843;51.040;13.782;2022-12-18T03:31:49;102046.25;;;-7.39;80.48
33506;BME280;19843;51.040;13.782;2022-12-18T03:34:19;102051.09;;;-7.50;80.80
33506;BME280;19843;51.040;13.782;2022-12-18T03:36:49;102047.69;;;-7.49;80.88
33506;BME280;19843;51.040;13.782;2022-12-18T03:39:16;102049.91;;;-7.60;81.51
33506;BME280;19843;51.040;13.782;2022-12-18T03:41:44;102055.06;;;-7.61;81.43
33506;BME280;19843;51.040;13.782;2022-12-18T03:44:13;102062.47;;;-7.48;80.67
33506;BME280;19843;51.040;13.782;2022-12-18T03:46:44;102057.66;;;-7.63;81.42
33506;BME280;19843;51.040;13.782;2022-12-18T03:49:18;102059.97;;;-7.70;81.39
33506;BME280;19843;51.040;13.782;2022-12-18T03:51:47;102058.53;;;-7.62;81.02
33506;BME280;19843;51.040;13.782;2022-12-18T03:54:16;102063.34;;;-7.73;80.44
33506;BME280;19843;51.040;13.782;2022-12-18T03:56:45;102059.78;;;-7.77;80.62
33506;BME280;19843;51.040;13.782;2022-12-18T03:59:13;102068.81;;;-7.91;80.90
33506;BME280;19843;51.040;13.782;2022-12-18T04:01:43;102077.63;;;-8.11;82.18
33506;BME280;19843;51.040;13.782;2022-12-18T04:04:12;102076.41;;;-7.97;81.41
33506;BME280;19843;51.040;13.782;2022-12-18T04:06:42;102074.41;;;-8.04;81.61
33506;BME280;19843;51.040;13.782;2022-12-18T04:09:10;102070.28;;;-7.99;81.12
33506;BME280;19843;51.040;13.782;2022-12-18T04:11:38;102068.34;;;-8.05;81.36
33506;BME280;19843;51.040;13.782;2022-12-18T04:14:06;102061.63;;;-8.22;81.82
33506;BME280;19843;51.040;13.782;2022-12-18T04:16:39;102075.22;;;-8.31;81.97
33506;BME280;19843;51.040;13.782;2022-12-18T04:19:07;102073.72;;;-8.24;81.42
33506;BME280;19843;51.040;13.782;2022-12-18T04:21:34;102081.13;;;-8.35;82.16
33506;BME280;19843;51.040;13.782;2022-12-18T04:24:03;102085.81;;;-8.25;81.93
33506;BME280;19843;51.040;13.782;2022-12-18T04:26:31;102081.09;;;-8.12;81.17
33506;BME280;19843;51.040;13.782;2022-12-18T04:28:58;102079.66;;;-8.28;81.30
33506;BME280;19843;51.040;13.782;2022-12-18T04:31:25;102090.09;;;-8.27;81.19
33506;BME280;19843;51.040;13.782;2022-12-18T04:33:53;102072.53;;;-8.32;81.18
33506;BME280;19843;51.040;13.782;2022-12-18T04:36:20;102083.72;;;-8.35;81.14
33506;BME280;19843;51.040;13.782;2022-12-18T04:38:47;102087.91;;;-8.40;81.72
33506;BME280;19843;51.040;13.782;2022-12-18T04:41:16;102081.59;;;-8.47;82.21
33506;BME280;19843;51.040;13.782;2022-12-18T04:43:43;102088.22;;;-8.55;82.05
33506;BME280;19843;51.040;13.782;2022-12-18T04:46:11;102093.69;;;-8.70;82.84
33506;BME280;19843;51.040;13.782;2022-12-18T04:48:38;102091.50;;;-8.60;81.89
33506;BME280;19843;51.040;13.782;2022-12-18T04:51:06;102099.50;;;-8.54;82.33
33506;BME280;19843;51.040;13.782;2022-12-18T04:53:33;102100.44;;;-8.52;81.69
33506;BME280;19843;51.040;13.782;2022-12-18T04:56:05;102103.81;;;-8.55;81.40
33506;BME280;19843;51.040;13.782;2022-12-18T04:58:33;102105.47;;;-8.57;81.59
33506;BME280;19843;51.040;13.782;2022-12-18T05:01:01;102092.28;;;-8.62;81.96
33506;BME280;19843;51.040;13.782;2022-12-18T05:03:29;102087.81;;;-8.66;82.28
33506;BME280;19843;51.040;13.782;2022-12-18T05:05:57;102093.00;;;-8.66;81.32
33506;BME280;19843;51.040;13.782;2022-12-18T05:08:24;102090.03;;;-8.97;81.58
33506;BME280;19843;51.040;13.782;2022-12-18T05:10:57;102093.81;;;-9.12;82.65
33506;BME280;19843;51.040;13.782;2022-12-18T05:13:25;102092.47;;;-9.23;82.44
33506;BME280;19843;51.040;13.782;2022-12-18T05:15:54;102093.44;;;-9.21;83.18
33506;BME280;19843;51.040;13.782;2022-12-18T05:18:22;102099.56;;;-8.98;82.59
33506;BME280;19843;51.040;13.782;2022-12-18T05:20:49;102092.34;;;-9.05;82.27
33506;BME280;19843;51.040;13.782;2022-12-18T05:23:17;102093.22;;;-9.05;81.94
33506;BME280;19843;51.040;13.782;2022-12-18T05:25:46;102096.66;;;-9.06;82.17
33506;BME280;19843;51.040;13.782;2022-12-18T05:28:13;102091.81;;;-9.17;81.98
33506;BME280;19843;51.040;13.782;2022-12-18T05:30:41;102100.84;;;-9.09;82.13
33506;BME280;19843;51.040;13.782;2022-12-18T05:33:09;102106.31;;;-9.01;81.75
33506;BME280;19843;51.040;13.782;2022-12-18T05:35:37;102094.53;;;-8.93;81.14
33506;BME280;19843;51.040;13.782;2022-12-18T05:38:04;102100.56;;;-8.94;81.29
33506;BME280;19843;51.040;13.782;2022-12-18T05:40:31;102091.69;;;-8.77;80.59
33506;BME280;19843;51.040;13.782;2022-12-18T05:42:59;102094.06;;;-9.06;80.31
33506;BME280;19843;51.040;13.782;2022-12-18T05:45:26;102089.97;;;-9.21;81.12
33506;BME280;19843;51.040;13.782;2022-12-18T05:47:53;102104.00;;;-9.16;81.88
33506;BME280;19843;51.040;13.782;2022-12-18T05:50:23;102106.47;;;-8.98;81.08
33506;BME280;19843;51.040;13.782;2022-12-18T05:52:50;102099.69;;;-9.16;80.41
33506;BME280;19843;51.040;13.782;2022-12-18T05:55:18;102097.56;;;-9.26;80.60
33506;BME280;19843;51.040;13.782;2022-12-18T05:57:45;102111.44;;;-9.26;80.69
33506;BME280;19843;51.040;13.782;2022-12-18T06:00:13;102108.38;;;-9.36;80.75
33506;BME280;19843;51.040;13.782;2022-12-18T06:02:40;102108.00;;;-9.46;81.56
33506;BME280;19843;51.040;13.782;2022-12-18T06:05:08;102113.13;;;-9.47;81.77
33506;BME280;19843;51.040;13.782;2022-12-18T06:07:38;102104.16;;;-9.55;81.58
33506;BME280;19843;51.040;13.782;2022-12-18T06:10:05;102123.50;;;-9.68;82.03
33506;BME280;19843;51.040;13.782;2022-12-18T06:12:33;102126.09;;;-9.68;82.21
33506;BME280;19843;51.040;13.782;2022-12-18T06:15:00;102120.34;;;-9.61;81.95
33506;BME280;19843;51.040;13.782;2022-12-18T06:17:28;102124.53;;;-9.64;81.81
33506;BME280;19843;51.040;13.782;2022-12-18T06:19:56;102117.91;;;-9.58;82.04
33506;BME280;19843;51.040;13.782;2022-12-18T06:22:23;102129.25;;;-9.56;81.59
33506;BME280;19843;51.040;13.782;2022-12-18T06:24:52;102129.75;;;-9.43;81.58
33506;BME280;19843;51.040;13.782;2022-12-18T06:27:19;102129.81;;;-9.42;81.35
33506;BME280;19843;51.040;13.782;2022-12-18T06:29:47;102126.00;;;-9.50;81.19
33506;BME280;19843;51.040;13.782;2022-12-18T06:32:14;102121.28;;;-9.59;81.06
33506;BME280;19843;51.040;13.782;2022-12-18T06:34:42;102127.53;;;-9.55;80.84
33506;BME280;19843;51.040;13.782;2022-12-18T06:37:09;102137.41;;;-9.87;81.33
33506;BME280;19843;51.040;13.782;2022-12-18T06:39:36;102144.03;;;-9.94;82.01
33506;BME280;19843;51.040;13.782;2022-12-18T06:42:05;102138.75;;;-9.95;82.48
33506;BME280;19843;51.040;13.782;2022-12-18T06:44:32;102134.19;;;-9.81;82.24
33506;BME280;19843;51.040;13.782;2022-12-18T06:47:00;102138.13;;;-9.70;82.21
33506;BME280;19843;51.040;13.782;2022-12-18T06:49:27;102130.88;;;-9.58;81.18
33506;BME280;19843;51.040;13.782;2022-12-18T06:51:55;102144.16;;;-9.71;81.10
33506;BME280;19843;51.040;13.782;2022-12-18T06:54:23;102144.91;;;-9.74;81.46
33506;BME280;19843;51.040;13.782;2022-12-18T06:56:51;102148.91;;;-9.61;82.12
33506;BME280;19843;51.040;13.782;2022-12-18T06:59:19;102145.69;;;-9.55;81.95
33506;BME280;19843;51.040;13.782;2022-12-18T07:01:47;102151.13;;;-9.49;81.40
33506;BME280;19843;51.040;13.782;2022-12-18T07:04:14;102161.56;;;-9.69;81.28
33506;BME280;19843;51.040;13.782;2022-12-18T07:06:41;102159.47;;;-9.77;81.78
33506;BME280;19843;51.040;13.782;2022-12-18T07:09:09;102163.69;;;-9.60;81.70
33506;BME280;19843;51.040;13.782;2022-12-18T07:11:36;102164.28;;;-9.66;81.13
33506;BME280;19843;51.040;13.782;2022-12-18T07:14:03;102171.63;;;-9.76;81.35
33506;BME280;19843;51.040;13.782;2022-12-18T07:16:32;102165.94;;;-9.68;81.67
33506;BME280;19843;51.040;13.782;2022-12-18T07:19:00;102166.25;;;-9.81;81.77
33506;BME280;19843;51.040;13.782;2022-12-18T07:21:27;102172.75;;;-9.70;81.56
33506;BME280;19843;51.040;13.782;2022-12-18T07:23:54;102169.75;;;-9.59;81.16
33506;BME280;19843;51.040;13.782;2022-12-18T07:26:22;102168.19;;;-9.56;81.33
33506;BME280;19843;51.040;13.782;2022-12-18T07:28:50;102164.97;;;-9.70;81.27
33506;BME280;19843;51.040;13.782;2022-12-18T07:31:18;102168.97;;;-9.78;82.31
33506;BME280;19843;51.040;13.782;2022-12-18T07:33:48;102170.13;;;-9.71;82.76
33506;BME280;19843;51.040;13.782;2022-12-18T07:36:16;102179.00;;;-9.66;82.29
33506;BME280;19843;51.040;13.782;2022-12-18T07:38:46;102176.75;;;-9.78;83.08
33506;BME280;19843;51.040;13.782;2022-12-18T07:41:13;102188.84;;;-9.78;82.98
33506;BME280;19843;51.040;13.782;2022-12-18T07:43:41;102191.25;;;-9.83;83.56
33506;BME280;19843;51.040;13.782;2022-12-18T07:46:10;102194.22;;;-9.54;82.66
33506;BME280;19843;51.040;13.782;2022-12-18T07:48:39;102187.09;;;-9.39;81.32
33506;BME280;19843;51.040;13.782;2022-12-18T07:51:09;102195.66;;;-9.41;81.23
33506;BME280;19843;51.040;13.782;2022-12-18T07:53:38;102199.59;;;-9.30;81.11
33506;BME280;19843;51.040;13.782;2022-12-18T07:56:07;102192.84;;;-9.06;79.83
33506;BME280;19843;51.040;13.782;2022-12-18T07:58:53;102195.44;;;-9.06;79.56
33506;BME280;19843;51.040;13.782;2022-12-18T08:01:20;102201.88;;;-9.17;79.90
33506;BME280;19843;51.040;13.782;2022-12-18T08:03:48;102191.53;;;-9.15;80.13
33506;BME280;19843;51.040;13.782;2022-12-18T08:06:19;102187.31;;;-8.92;79.98
33506;BME280;19843;51.040;13.782;2022-12-18T08:08:50;102180.59;;;-8.87;79.99
33506;BME280;19843;51.040;13.782;2022-12-18T08:11:17;102169.78;;;-8.75;80.55
33506;BME280;19843;51.040;13.782;2022-12-18T08:13:46;102172.16;;;-8.59;80.80
33506;BME280;19843;51.040;13.782;2022-12-18T08:16:14;102175.78;;;-8.55;80.64
33506;BME280;19843;51.040;13.782;2022-12-18T08:18:42;102168.41;;;-8.45;80.87
33506;BME280;19843;51.040;13.782;2022-12-18T08:21:10;102167.66;;;-8.41;81.61
33506;BME280;19843;51.040;13.782;2022-12-18T08:23:39;102164.03;;;-8.22;81.29
33506;BME280;19843;51.040;13.782;2022-12-18T08:26:08;102162.59;;;-8.13;81.49
33506;BME280;19843;51.040;13.782;2022-12-18T08:28:36;102161.75;;;-7.90;81.87
33506;BME280;19843;51.040;13.782;2022-12-18T08:31:04;102172.63;;;-7.52;81.64
33506;BME280;19843;51.040;13.782;2022-12-18T08:33:31;102168.16;;;-7.56;81.32
33506;BME280;19843;51.040;13.782;2022-12-18T08:35:59;102164.94;;;-7.49;81.82
33506;BME280;19843;51.040;13.782;2022-12-18T08:38:27;102163.88;;;-7.54;82.53
33506;BME280;19843;51.040;13.782;2022-12-18T08:40:59;102168.66;;;-7.42;82.91
33506;BME280;19843;51.040;13.782;2022-12-18T08:43:27;102161.50;;;-7.22;82.90
33506;BME280;19843;51.040;13.782;2022-12-18T08:46:12;102167.19;;;-7.08;82.49
33506;BME280;19843;51.040;13.782;2022-12-18T08:48:39;102168.47;;;-6.96;82.83
33506;BME280;19843;51.040;13.782;2022-12-18T08:51:07;102162.66;;;-6.87;81.90
33506;BME280;19843;51.040;13.782;2022-12-18T08:53:35;102168.31;;;-6.73;82.53
33506;BME280;19843;51.040;13.782;2022-12-18T08:56:05;102170.44;;;-6.61;82.70
33506;BME280;19843;51.040;13.782;2022-12-18T08:58:33;102169.31;;;-6.41;82.10
33506;BME280;19843;51.040;13.782;2022-12-18T09:01:00;102173.47;;;-6.19;81.88
33506;BME280;19843;51.040;13.782;2022-12-18T09:03:28;102176.03;;;-5.90;81.56
33506;BME280;19843;51.040;13.782;2022-12-18T09:05:56;102173.59;;;-5.84;82.06
33506;BME280;19843;51.040;13.782;2022-12-18T09:08:24;102163.50;;;-5.72;81.98
33506;BME280;19843;51.040;13.782;2022-12-18T09:10:51;102156.03;;;-5.58;81.99
33506;BME280;19843;51.040;13.782;2022-12-18T09:13:20;102154.03;;;-5.35;82.82
33506;BME280;19843;51.040;13.782;2022-12-18T09:15:48;102159.41;;;-5.29;82.43
33506;BME280;19843;51.040;13.782;2022-12-18T09:18:17;102167.56;;;-5.16;82.19
33506;BME280;19843;51.040;13.782;2022-12-18T09:20:45;102181.75;;;-5.08;82.85
33506;BME280;19843;51.040;13.782;2022-12-18T09:23:12;102175.47;;;-4.80;82.46
33506;BME280;19843;51.040;13.782;2022-12-18T09:25:40;102187.19;;;-4.64;82.00
33506;BME280;19843;51.040;13.782;2022-12-18T09:28:10;102184.88;;;-4.52;82.39
33506;BME280;19843;51.040;13.782;2022-12-18T09:30:39;102190.53;;;-4.32;82.04
33506;BME280;19843;51.040;13.782;2022-12-18T09:33:09;102188.22;;;-4.18;82.97
33506;BME280;19843;51.040;13.782;2022-12-18T09:35:37;102181.56;;;-4.04;83.20
33506;BME280;19843;51.040;13.782;2022-12-18T09:38:05;102181.91;;;-3.88;83.11
33506;BME280;19843;51.040;13.782;2022-12-18T09:40:34;102188.34;;;-3.71;82.90
33506;BME280;19843;51.040;13.782;2022-12-18T09:43:03;102179.13;;;-3.50;82.82
33506;BME280;19843;51.040;13.782;2022-12-18T09:45:35;102187.28;;;-3.37;82.19
33506;BME280;19843;51.040;13.782;2022-12-18T09:48:09;102179.66;;;-3.23;82.27
33506;BME280;19843;51.040;13.782;2022-12-18T09:50:38;102179.84;;;-3.12;81.54
33506;BME280;19843;51.040;13.782;2022-12-18T09:53:07;102175.72;;;-2.98;81.06
33506;BME280;19843;51.040;13.782;2022-12-18T09:55:39;102170.69;;;-2.85;81.51
33506;BME280;19843;51.040;13.782;2022-12-18T09:58:13;102166.28;;;-2.88;80.55
33506;BME280;19843;51.040;13.782;2022-12-18T10:00:42;102169.00;;;-2.80;80.33
33506;BME280;19843;51.040;13.782;2022-12-18T10:03:13;102156.00;;;-2.74;80.34
33506;BME280;19843;51.040;13.782;2022-12-18T10:05:43;102153.56;;;-2.60;79.61
33506;BME280;19843;51.040;13.782;2022-12-18T10:08:16;102147.44;;;-2.59;79.31
33506;BME280;19843;51.040;13.782;2022-12-18T10:10:47;102145.03;;;-2.47;79.15
33506;BME280;19843;51.040;13.782;2022-12-18T10:13:18;102135.31;;;-2.51;78.63
33506;BME280;19843;51.040;13.782;2022-12-18T10:15:54;102127.53;;;-2.45;78.59
33506;BME280;19843;51.040;13.782;2022-12-18T10:18:28;102128.47;;;-2.40;78.58
33506;BME280;19843;51.040;13.782;2022-12-18T10:21:02;102118.69;;;-2.52;78.13
33506;BME280;19843;51.040;13.782;2022-12-18T10:23:33;102119.78;;;-2.36;78.24
33506;BME280;19843;51.040;13.782;2022-12-18T10:26:02;102113.56;;;-2.41;78.04
33506;BME280;19843;51.040;13.782;2022-12-18T10:28:31;102112.94;;;-2.24;77.69
33506;BME280;19843;51.040;13.782;2022-12-18T10:30:59;102109.31;;;-2.29;77.44
33506;BME280;19843;51.040;13.782;2022-12-18T10:33:30;102098.00;;;-2.25;76.92
33506;BME280;19843;51.040;13.782;2022-12-18T10:35:58;102098.03;;;-2.24;76.79
33506;BME280;19843;51.040;13.782;2022-12-18T10:38:26;102095.38;;;-2.25;76.84
33506;BME280;19843;51.040;13.782;2022-12-18T10:40:55;102096.47;;;-2.08;76.61
33506;BME280;19843;51.040;13.782;2022-12-18T10:43:24;102083.50;;;-1.93;75.98
33506;BME280;19843;51.040;13.782;2022-12-18T10:45:59;102075.69;;;-1.86;75.57
33506;BME280;19843;51.040;13.782;2022-12-18T10:48:28;102071.38;;;-1.81;75.24
33506;BME280;19843;51.040;13.782;2022-12-18T10:50:57;102070.38;;;-1.93;75.53
33506;BME280;19843;51.040;13.782;2022-12-18T10:53:38;102077.38;;;-1.92;75.46
33506;BME280;19843;51.040;13.782;2022-12-18T10:56:07;102077.38;;;-1.92;75.35
33506;BME280;19843;51.040;13.782;2022-12-18T10:58:35;102077.41;;;-1.90;74.76
33506;BME280;19843;51.040;13.782;2022-12-18T11:01:07;102081.88;;;-1.81;74.75
33506;BME280;19843;51.040;13.782;2022-12-18T11:03:37;102080.78;;;-2.00;75.38
33506;BME280;19843;51.040;13.782;2022-12-18T11:06:06;102081.88;;;-1.81;74.62
33506;BME280;19843;51.040;13.782;2022-12-18T11:08:34;102087.97;;;-1.85;74.38
33506;BME280;19843;51.040;13.782;2022-12-18T11:11:01;102074.81;;;-1.85;74.67
33506;BME280;19843;51.040;13.782;2022-12-18T11:13:29;102073.97;;;-1.83;74.46
33506;BME280;19843;51.040;13.782;2022-12-18T11:15:58;102065.38;;;-1.66;74.00
33506;BME280;19843;51.040;13.782;2022-12-18T11:18:27;102053.91;;;-1.73;73.62
33506;BME280;19843;51.040;13.782;2022-12-18T11:20:56;102063.47;;;-1.83;73.88
33506;BME280;19843;51.040;13.782;2022-12-18T11:23:25;102053.91;;;-1.73;74.31
33506;BME280;19843;51.040;13.782;2022-12-18T11:25:54;102041.63;;;-1.74;74.32
33506;BME280;19843;51.040;13.782;2022-12-18T11:28:25;102045.06;;;-1.81;74.13
33506;BME280;19843;51.040;13.782;2022-12-18T11:31:08;102046.00;;;-1.76;73.72
33506;BME280;19843;51.040;13.782;2022-12-18T11:33:37;102045.28;;;-1.58;73.99
33506;BME280;19843;51.040;13.782;2022-12-18T11:36:28;102046.22;;;-1.50;73.77
33506;BME280;19843;51.040;13.782;2022-12-18T11:38:56;102043.72;;;-1.38;72.67
33506;BME280;19843;51.040;13.782;2022-12-18T11:41:27;102049.88;;;-1.34;72.62
33506;BME280;19843;51.040;13.782;2022-12-18T11:44:13;102048.94;;;-1.42;72.39
33506;BME280;19843;51.040;13.782;2022-12-18T11:46:43;102041.81;;;-1.54;73.08
33506;BME280;19843;51.040;13.782;2022-12-18T11:49:17;102045.25;;;-1.60;72.93
33506;BME280;19843;51.040;13.782;2022-12-18T11:51:49;102043.38;;;-1.76;73.71
33506;BME280;19843;51.040;13.782;2022-12-18T11:54:18;102049.53;;;-1.71;73.69
33506;BME280;19843;51.040;13.782;2022-12-18T11:56:47;102053.03;;;-1.71;73.36
33506;BME280;19843;51.040;13.782;2022-12-18T11:59:20;102056.56;;;-1.69;74.01
33506;BME280;19843;51.040;13.782;2022-12-18T12:01:52;102060.09;;;-1.70;73.39
33506;BME280;19843;51.040;13.782;2022-12-18T12:04:28;102054.81;;;-1.71;73.28
33506;BME280;19843;51.040;13.782;2022-12-18T12:07:07;102056.38;;;-1.89;74.02
33506;BME280;19843;51.040;13.782;2022-12-18T12:09:43;102053.75;;;-1.89;73.99
33506;BME280;19843;51.040;13.782;2022-12-18T12:12:17;102063.53;;;-1.77;74.21
33506;BME280;19843;51.040;13.782;2022-12-18T12:14:52;102065.22;;;-1.83;73.96
33506;BME280;19843;51.040;13.782;2022-12-18T12:17:25;102069.59;;;-1.82;74.30
33506;BME280;19843;51.040;13.782;2022-12-18T12:19:57;102068.66;;;-1.87;74.73
33506;BME280;19843;51.040;13.782;2022-12-18T12:22:30;102069.63;;;-1.81;73.93
33506;BME280;19843;51.040;13.782;2022-12-18T12:25:13;102079.09;;;-1.97;74.41
33506;BME280;19843;51.040;13.782;2022-12-18T12:27:46;102079.91;;;-2.01;74.32
33506;BME280;19843;51.040;13.782;2022-12-18T12:30:18;102078.06;;;-2.11;74.61
33506;BME280;19843;51.040;13.782;2022-12-18T12:32:50;102079.97;;;-1.95;74.21
33506;BME280;19843;51.040;13.782;2022-12-18T12:35:25;102078.28;;;-1.90;73.25
33506;BME280;19843;51.040;13.782;2022-12-18T12:37:58;102092.22;;;-1.97;73.50
33506;BME280;19843;51.040;13.782;2022-12-18T12:40:31;102102.75;;;-1.97;73.38
33506;BME280;19843;51.040;13.782;2022-12-18T12:43:22;102100.25;;;-1.86;72.53
33506;BME280;19843;51.040;13.782;2022-12-18T12:45:52;102101.94;;;-1.93;73.19
33506;BME280;19843;51.040;13.782;2022-12-18T12:48:24;102108.13;;;-1.84;73.29
33506;BME280;19843;51.040;13.782;2022-12-18T12:50:54;102086.09;;;-1.97;72.82
33506;BME280;19843;51.040;13.782;2022-12-18T12:53:25;102081.69;;;-2.00;72.99